createdAt,value
2017-12-01T00:00:10.858Z,1000.62
2017-12-01T00:00:36.998Z,1000.62
2017-12-01T00:01:03.116Z,1000.67
2017-12-01T00:01:29.242Z,1000.67
2017-12-01T00:01:55.359Z,1000.69
2017-12-01T00:02:21.488Z,1000.71
2017-12-01T00:02:47.610Z,1000.68
2017-12-01T00:03:13.724Z,1000.68
2017-12-01T00:03:39.851Z,1000.66
2017-12-01T00:04:05.991Z,1000.69
2017-12-01T00:04:32.108Z,1000.71
2017-12-01T00:04:58.255Z,1000.72
2017-12-01T00:05:24.380Z,1000.72
2017-12-01T00:05:50.506Z,1000.71
2017-12-01T00:06:16.627Z,1000.71
2017-12-01T00:06:42.766Z,1000.7
2017-12-01T00:07:08.888Z,1000.72
2017-12-01T00:07:35.028Z,1000.73
2017-12-01T00:08:01.150Z,1000.71
2017-12-01T00:08:27.263Z,1000.67
2017-12-01T00:08:53.387Z,1000.69
2017-12-01T00:09:19.502Z,1000.76
2017-12-01T00:09:45.634Z,1000.74
2017-12-01T00:10:11.775Z,1000.73
2017-12-01T00:10:37.891Z,1000.74
2017-12-01T00:11:04.007Z,1000.75
2017-12-01T00:11:30.126Z,1000.76
2017-12-01T00:11:56.248Z,1000.77
2017-12-01T00:12:22.378Z,1000.78
2017-12-01T00:12:48.493Z,1000.79
2017-12-01T00:13:14.614Z,1000.77
2017-12-01T00:13:40.730Z,1000.8
2017-12-01T00:14:06.899Z,1000.81
2017-12-01T00:14:33.017Z,1000.81
2017-12-01T00:14:59.133Z,1000.82
2017-12-01T00:15:25.261Z,1000.81
2017-12-01T00:15:51.382Z,1000.83
2017-12-01T00:16:17.497Z,1000.84
2017-12-01T00:16:43.614Z,1000.81
2017-12-01T00:17:09.740Z,1000.84
2017-12-01T00:17:35.863Z,1000.84
2017-12-01T00:18:01.980Z,1000.81
2017-12-01T00:18:28.107Z,1000.86
2017-12-01T00:18:54.223Z,1000.84
2017-12-01T00:19:20.347Z,1000.86
2017-12-01T00:19:46.462Z,1000.9
2017-12-01T00:20:12.631Z,1000.87
2017-12-01T00:20:38.707Z,1000.88
2017-12-01T00:21:04.826Z,1000.92
2017-12-01T00:21:30.947Z,1000.88
2017-12-01T00:21:57.072Z,1000.9
2017-12-01T00:22:23.188Z,1000.92
2017-12-01T00:22:49.312Z,1000.91
2017-12-01T00:23:15.429Z,1000.93
2017-12-01T00:23:41.548Z,1000.95
2017-12-01T00:24:07.670Z,1000.97
2017-12-01T00:24:33.789Z,1000.93
2017-12-01T00:24:59.914Z,1000.96
2017-12-01T00:25:26.026Z,1000.98
2017-12-01T00:25:52.152Z,1000.95
2017-12-01T00:26:18.272Z,1000.98
2017-12-01T00:26:44.396Z,1001
2017-12-01T00:27:10.518Z,1001.01
2017-12-01T00:27:36.640Z,1001.01
2017-12-01T00:28:02.756Z,1001
2017-12-01T00:28:28.874Z,1001.02
2017-12-01T00:28:55.034Z,1001.01
2017-12-01T00:29:21.167Z,1001.02
2017-12-01T00:29:47.283Z,1000.99
2017-12-01T00:30:13.407Z,1000.99
2017-12-01T00:30:39.518Z,1001
2017-12-01T00:31:05.642Z,1001.03
2017-12-01T00:31:31.763Z,1001.05
2017-12-01T00:31:57.891Z,1001.05
2017-12-01T00:32:24.016Z,1001.05
2017-12-01T00:32:50.133Z,1001.05
2017-12-01T00:33:16.257Z,1001.1
2017-12-01T00:33:42.377Z,1001.06
2017-12-01T00:34:08.498Z,1001.08
2017-12-01T00:34:34.613Z,1001.07
2017-12-01T00:35:00.732Z,1001.1
2017-12-01T00:35:26.858Z,1001.09
2017-12-01T00:35:52.974Z,1001.07
2017-12-01T00:36:19.119Z,1001.07
2017-12-01T00:36:45.240Z,1001.05
2017-12-01T00:37:11.358Z,1001.07
2017-12-01T00:37:37.495Z,1001.07
2017-12-01T00:38:03.616Z,1001.06
2017-12-01T00:38:29.739Z,1001.07
2017-12-01T00:38:55.860Z,1001.05
2017-12-01T00:39:21.976Z,1001.08
2017-12-01T00:39:48.103Z,1001.05
2017-12-01T00:40:14.217Z,1001.06
2017-12-01T00:40:40.341Z,1001.09
2017-12-01T00:41:06.483Z,1001.06
2017-12-01T00:41:32.600Z,1001.08
2017-12-01T00:41:58.724Z,1001.08
2017-12-01T00:42:24.841Z,1001.1
2017-12-01T00:42:50.966Z,1001.09
2017-12-01T00:43:17.079Z,1001.08
2017-12-01T00:43:43.198Z,1001.12
2017-12-01T00:44:09.324Z,1001.12
2017-12-01T00:44:35.439Z,1001.11
2017-12-01T00:45:01.568Z,1001.12
2017-12-01T00:45:27.684Z,1001.14
2017-12-01T00:45:53.824Z,1001.17
2017-12-01T00:46:19.950Z,1001.12
2017-12-01T00:46:46.066Z,1001.17
2017-12-01T00:47:12.182Z,1001.13
2017-12-01T00:47:38.307Z,1001.15
2017-12-01T00:48:04.421Z,1001.2
2017-12-01T00:48:30.546Z,1001.14
2017-12-01T00:48:56.662Z,1001.19
2017-12-01T00:49:22.787Z,1001.2
2017-12-01T00:49:48.908Z,1001.21
2017-12-01T00:50:15.029Z,1001.19
2017-12-01T00:50:41.142Z,1001.21
2017-12-01T00:51:07.290Z,1001.25
2017-12-01T00:51:33.409Z,1001.2
2017-12-01T00:51:59.526Z,1001.23
2017-12-01T00:52:25.648Z,1001.22
2017-12-01T00:52:51.765Z,1001.25
2017-12-01T00:53:17.893Z,1001.23
2017-12-01T00:53:44.029Z,1001.22
2017-12-01T00:54:10.148Z,1001.23
2017-12-01T00:54:36.275Z,1001.23
2017-12-01T00:55:02.415Z,1001.23
2017-12-01T00:55:28.536Z,1001.23
2017-12-01T00:55:54.674Z,1001.25
2017-12-01T00:56:20.796Z,1001.23
2017-12-01T00:56:46.921Z,1001.22
2017-12-01T00:57:13.037Z,1001.24
2017-12-01T00:57:39.156Z,1001.25
2017-12-01T00:58:05.280Z,1001.25
2017-12-01T00:58:31.399Z,1001.26
2017-12-01T00:58:57.516Z,1001.26
2017-12-01T00:59:23.642Z,1001.3
2017-12-01T00:59:49.756Z,1001.31
2017-12-01T01:00:15.878Z,1001.26
2017-12-01T01:00:41.992Z,1001.25
2017-12-01T01:01:08.117Z,1001.26
2017-12-01T01:01:34.235Z,1001.24
2017-12-01T01:02:00.375Z,1001.25
2017-12-01T01:02:26.486Z,1001.26
2017-12-01T01:02:52.609Z,1001.24
2017-12-01T01:03:18.736Z,1001.24
2017-12-01T01:03:44.856Z,1001.26
2017-12-01T01:04:10.980Z,1001.31
2017-12-01T01:04:37.095Z,1001.27
2017-12-01T01:05:03.218Z,1001.29
2017-12-01T01:05:29.335Z,1001.34
2017-12-01T01:05:55.455Z,1001.31
2017-12-01T01:06:21.578Z,1001.34
2017-12-01T01:06:47.736Z,1001.35
2017-12-01T01:07:13.850Z,1001.34
2017-12-01T01:07:39.973Z,1001.35
2017-12-01T01:08:06.105Z,1001.38
2017-12-01T01:08:32.234Z,1001.37
2017-12-01T01:08:58.398Z,1001.38
2017-12-01T01:09:24.513Z,1001.37
2017-12-01T01:09:50.640Z,1001.38
2017-12-01T01:10:16.756Z,1001.41
2017-12-01T01:10:42.960Z,1001.35
2017-12-01T01:11:09.024Z,1001.45
2017-12-01T01:11:35.136Z,1001.45
2017-12-01T01:12:01.260Z,1001.46
2017-12-01T01:12:27.379Z,1001.44
2017-12-01T01:12:53.503Z,1001.5
2017-12-01T01:13:19.647Z,1001.44
2017-12-01T01:13:45.761Z,1001.47
2017-12-01T01:14:11.871Z,1001.48
2017-12-01T01:14:37.996Z,1001.5
2017-12-01T01:15:04.123Z,1001.49
2017-12-01T01:15:30.235Z,1001.53
2017-12-01T01:15:56.352Z,1001.52
2017-12-01T01:16:22.481Z,1001.52
2017-12-01T01:16:48.596Z,1001.53
2017-12-01T01:17:14.714Z,1001.51
2017-12-01T01:17:40.842Z,1001.54
2017-12-01T01:18:06.966Z,1001.54
2017-12-01T01:18:33.088Z,1001.54
2017-12-01T01:18:59.206Z,1001.53
2017-12-01T01:19:25.319Z,1001.53
2017-12-01T01:19:51.441Z,1001.5
2017-12-01T01:20:17.559Z,1001.56
2017-12-01T01:20:43.683Z,1001.53
2017-12-01T01:21:09.802Z,1001.55
2017-12-01T01:21:35.926Z,1001.55
2017-12-01T01:22:02.069Z,1001.56
2017-12-01T01:22:28.182Z,1001.56
2017-12-01T01:22:54.306Z,1001.54
2017-12-01T01:23:20.421Z,1001.57
2017-12-01T01:23:46.545Z,1001.56
2017-12-01T01:24:12.665Z,1001.54
2017-12-01T01:24:38.781Z,1001.54
2017-12-01T01:25:04.914Z,1001.52
2017-12-01T01:25:31.050Z,1001.55
2017-12-01T01:25:57.175Z,1001.59
2017-12-01T01:26:23.328Z,1001.57
2017-12-01T01:26:49.451Z,1001.55
2017-12-01T01:27:15.595Z,1001.54
2017-12-01T01:27:41.710Z,1001.58
2017-12-01T01:28:07.828Z,1001.56
2017-12-01T01:28:33.954Z,1001.59
2017-12-01T01:29:00.074Z,1001.59
2017-12-01T01:29:26.189Z,1001.62
2017-12-01T01:29:52.306Z,1001.59
2017-12-01T01:30:18.431Z,1001.65
2017-12-01T01:30:44.544Z,1001.62
2017-12-01T01:31:10.672Z,1001.66
2017-12-01T01:31:36.784Z,1001.64
2017-12-01T01:32:02.911Z,1001.68
2017-12-01T01:32:29.029Z,1001.65
2017-12-01T01:32:55.147Z,1001.69
2017-12-01T01:33:21.260Z,1001.63
2017-12-01T01:33:47.411Z,1001.65
2017-12-01T01:34:13.522Z,1001.69
2017-12-01T01:34:39.646Z,1001.67
2017-12-01T01:35:05.767Z,1001.74
2017-12-01T01:35:31.886Z,1001.7
2017-12-01T01:35:58.004Z,1001.71
2017-12-01T01:36:24.126Z,1001.7
2017-12-01T01:36:50.252Z,1001.75
2017-12-01T01:37:16.394Z,1001.72
2017-12-01T01:37:42.519Z,1001.73
2017-12-01T01:38:08.630Z,1001.72
2017-12-01T01:38:34.754Z,1001.7
2017-12-01T01:39:00.868Z,1001.71
2017-12-01T01:39:26.995Z,1001.69
2017-12-01T01:39:53.108Z,1001.73
2017-12-01T01:40:19.228Z,1001.73
2017-12-01T01:40:45.348Z,1001.74
2017-12-01T01:41:11.465Z,1001.69
2017-12-01T01:41:37.584Z,1001.72
2017-12-01T01:42:03.730Z,1001.73
2017-12-01T01:42:29.852Z,1001.75
2017-12-01T01:42:55.968Z,1001.74
2017-12-01T01:43:22.093Z,1001.72
2017-12-01T01:43:48.289Z,1001.76
2017-12-01T01:44:14.354Z,1001.75
2017-12-01T01:44:40.478Z,1001.77
2017-12-01T01:45:06.591Z,1001.75
2017-12-01T01:45:32.717Z,1001.75
2017-12-01T01:45:58.834Z,1001.74
2017-12-01T01:46:24.962Z,1001.76
2017-12-01T01:46:51.069Z,1001.77
2017-12-01T01:47:17.193Z,1001.76
2017-12-01T01:47:43.309Z,1001.75
2017-12-01T01:48:09.434Z,1001.77
2017-12-01T01:48:35.570Z,1001.79
2017-12-01T01:49:01.687Z,1001.78
2017-12-01T01:49:27.816Z,1001.79
2017-12-01T01:49:53.936Z,1001.79
2017-12-01T01:50:20.056Z,1001.83
2017-12-01T01:50:46.191Z,1001.84
2017-12-01T01:51:12.313Z,1001.84
2017-12-01T01:51:38.432Z,1001.85
2017-12-01T01:52:04.568Z,1001.88
2017-12-01T01:52:30.685Z,1001.88
2017-12-01T01:52:56.809Z,1001.86
2017-12-01T01:53:22.930Z,1001.89
2017-12-01T01:53:49.045Z,1001.91
2017-12-01T01:54:15.174Z,1001.9
2017-12-01T01:54:41.340Z,1001.92
2017-12-01T01:55:07.473Z,1001.92
2017-12-01T01:55:33.592Z,1001.93
2017-12-01T01:55:59.717Z,1001.95
2017-12-01T01:56:25.837Z,1001.92
2017-12-01T01:56:51.953Z,1001.94
2017-12-01T01:57:18.077Z,1001.91
2017-12-01T01:57:44.189Z,1001.92
2017-12-01T01:58:10.310Z,1001.96
2017-12-01T01:58:36.434Z,1001.95
2017-12-01T01:59:02.543Z,1001.95
2017-12-01T01:59:28.664Z,1001.96
2017-12-01T01:59:54.792Z,1001.98
2017-12-01T02:00:20.927Z,1001.92
2017-12-01T02:00:47.048Z,1001.96
2017-12-01T02:01:13.164Z,1001.97
2017-12-01T02:01:39.294Z,1001.96
2017-12-01T02:02:05.419Z,1001.99
2017-12-01T02:02:31.533Z,1001.97
2017-12-01T02:02:57.653Z,1001.96
2017-12-01T02:03:23.765Z,1001.99
2017-12-01T02:03:49.898Z,1002.03
2017-12-01T02:04:16.026Z,1002.04
2017-12-01T02:04:42.148Z,1002.01
2017-12-01T02:05:08.266Z,1002
2017-12-01T02:05:34.386Z,1002.03
2017-12-01T02:06:00.506Z,1002.05
2017-12-01T02:06:26.625Z,1002.07
2017-12-01T02:06:52.746Z,1002.03
2017-12-01T02:07:18.867Z,1002.06
2017-12-01T02:07:44.983Z,1002.08
2017-12-01T02:08:11.129Z,1002.03
2017-12-01T02:08:37.246Z,1002.08
2017-12-01T02:09:03.360Z,1002.09
2017-12-01T02:09:29.485Z,1002.12
2017-12-01T02:09:55.599Z,1002.12
2017-12-01T02:10:21.721Z,1002.12
2017-12-01T02:10:47.843Z,1002.1
2017-12-01T02:11:13.956Z,1002.12
2017-12-01T02:11:40.077Z,1002.1
2017-12-01T02:12:06.197Z,1002.09
2017-12-01T02:12:32.318Z,1002.09
2017-12-01T02:12:58.455Z,1002.1
2017-12-01T02:13:24.571Z,1002.11
2017-12-01T02:13:50.696Z,1002.07
2017-12-01T02:14:16.811Z,1002.1
2017-12-01T02:14:42.954Z,1002.12
2017-12-01T02:15:09.067Z,1002.09
2017-12-01T02:15:35.232Z,1002.08
2017-12-01T02:16:01.358Z,1002.1
2017-12-01T02:16:27.495Z,1002.11
2017-12-01T02:16:53.610Z,1002.11
2017-12-01T02:17:19.730Z,1002.09
2017-12-01T02:17:45.847Z,1002.09
2017-12-01T02:18:11.970Z,1002.09
2017-12-01T02:18:38.082Z,1002.13
2017-12-01T02:19:04.209Z,1002.16
2017-12-01T02:19:30.324Z,1002.12
2017-12-01T02:19:56.444Z,1002.1
2017-12-01T02:20:22.566Z,1002.1
2017-12-01T02:20:48.682Z,1002.14
2017-12-01T02:21:14.804Z,1002.1
2017-12-01T02:21:40.927Z,1002.16
2017-12-01T02:22:07.053Z,1002.19
2017-12-01T02:22:33.175Z,1002.17
2017-12-01T02:22:59.288Z,1002.17
2017-12-01T02:23:25.412Z,1002.17
2017-12-01T02:23:51.525Z,1002.19
2017-12-01T02:24:17.663Z,1002.21
2017-12-01T02:24:43.779Z,1002.17
2017-12-01T02:25:09.905Z,1002.2
2017-12-01T02:25:36.028Z,1002.2
2017-12-01T02:26:02.147Z,1002.23
2017-12-01T02:26:28.273Z,1002.24
2017-12-01T02:26:54.383Z,1002.21
2017-12-01T02:27:20.535Z,1002.22
2017-12-01T02:27:46.651Z,1002.23
2017-12-01T02:28:12.769Z,1002.22
2017-12-01T02:28:38.892Z,1002.25
2017-12-01T02:29:05.007Z,1002.24
2017-12-01T02:29:31.140Z,1002.28
2017-12-01T02:29:57.277Z,1002.3
2017-12-01T02:30:23.414Z,1002.28
2017-12-01T02:30:49.528Z,1002.29
2017-12-01T02:31:15.678Z,1002.3
2017-12-01T02:31:41.817Z,1002.33
2017-12-01T02:32:07.954Z,1002.32
2017-12-01T02:32:34.098Z,1002.31
2017-12-01T02:33:00.217Z,1002.34
2017-12-01T02:33:26.338Z,1002.32
2017-12-01T02:33:52.452Z,1002.33
2017-12-01T02:34:18.571Z,1002.32
2017-12-01T02:34:44.720Z,1002.35
2017-12-01T02:35:10.831Z,1002.35
2017-12-01T02:35:36.957Z,1002.33
2017-12-01T02:36:03.072Z,1002.37
2017-12-01T02:36:29.194Z,1002.36
2017-12-01T02:36:55.316Z,1002.34
2017-12-01T02:37:21.455Z,1002.37
2017-12-01T02:37:47.573Z,1002.37
2017-12-01T02:38:13.697Z,1002.39
2017-12-01T02:38:39.811Z,1002.36
2017-12-01T02:39:05.934Z,1002.37
2017-12-01T02:39:32.076Z,1002.35
2017-12-01T02:39:58.196Z,1002.39
2017-12-01T02:40:24.321Z,1002.36
2017-12-01T02:40:50.436Z,1002.43
2017-12-01T02:41:16.579Z,1002.44
2017-12-01T02:41:42.692Z,1002.43
2017-12-01T02:42:08.827Z,1002.41
2017-12-01T02:42:34.936Z,1002.43
2017-12-01T02:43:01.067Z,1002.4
2017-12-01T02:43:27.176Z,1002.44
2017-12-01T02:43:53.305Z,1002.43
2017-12-01T02:44:19.429Z,1002.48
2017-12-01T02:44:45.547Z,1002.49
2017-12-01T02:45:11.658Z,1002.46
2017-12-01T02:45:37.782Z,1002.45
2017-12-01T02:46:03.898Z,1002.48
2017-12-01T02:46:30.022Z,1002.49
2017-12-01T02:46:56.148Z,1002.48
2017-12-01T02:47:22.262Z,1002.49
2017-12-01T02:47:48.390Z,1002.47
2017-12-01T02:48:14.509Z,1002.5
2017-12-01T02:48:40.625Z,1002.52
2017-12-01T02:49:06.744Z,1002.53
2017-12-01T02:49:32.865Z,1002.54
2017-12-01T02:49:58.981Z,1002.55
2017-12-01T02:50:25.101Z,1002.51
2017-12-01T02:50:51.225Z,1002.54
2017-12-01T02:51:17.346Z,1002.59
2017-12-01T02:51:43.485Z,1002.51
2017-12-01T02:52:09.610Z,1002.56
2017-12-01T02:52:35.726Z,1002.58
2017-12-01T02:53:01.851Z,1002.59
2017-12-01T02:53:27.970Z,1002.6
2017-12-01T02:53:54.096Z,1002.56
2017-12-01T02:54:20.217Z,1002.58
2017-12-01T02:54:46.334Z,1002.6
2017-12-01T02:55:12.453Z,1002.58
2017-12-01T02:55:38.575Z,1002.59
2017-12-01T02:56:04.711Z,1002.62
2017-12-01T02:56:30.860Z,1002.61
2017-12-01T02:56:56.980Z,1002.62
2017-12-01T02:57:23.095Z,1002.62
2017-12-01T02:57:49.238Z,1002.62
2017-12-01T02:58:15.354Z,1002.66
2017-12-01T02:58:41.480Z,1002.64
2017-12-01T02:59:07.597Z,1002.66
2017-12-01T02:59:33.721Z,1002.65
2017-12-01T02:59:59.837Z,1002.71
2017-12-01T03:00:25.954Z,1002.67
2017-12-01T03:00:52.076Z,1002.72
2017-12-01T03:01:18.194Z,1002.71
2017-12-01T03:01:44.317Z,1002.71
2017-12-01T03:02:10.456Z,1002.73
2017-12-01T03:02:36.572Z,1002.73
2017-12-01T03:03:02.693Z,1002.75
2017-12-01T03:03:28.821Z,1002.73
2017-12-01T03:03:54.941Z,1002.72
2017-12-01T03:04:21.058Z,1002.73
2017-12-01T03:04:47.181Z,1002.71
2017-12-01T03:05:13.292Z,1002.76
2017-12-01T03:05:39.415Z,1002.74
2017-12-01T03:06:05.531Z,1002.75
2017-12-01T03:06:31.649Z,1002.75
2017-12-01T03:06:57.777Z,1002.72
2017-12-01T03:07:23.899Z,1002.74
2017-12-01T03:07:50.020Z,1002.75
2017-12-01T03:08:16.141Z,1002.77
2017-12-01T03:08:42.261Z,1002.75
2017-12-01T03:09:08.374Z,1002.78
2017-12-01T03:09:34.492Z,1002.76
2017-12-01T03:10:00.615Z,1002.74
2017-12-01T03:10:26.728Z,1002.72
2017-12-01T03:10:52.850Z,1002.73
2017-12-01T03:11:18.977Z,1002.71
2017-12-01T03:11:45.097Z,1002.7
2017-12-01T03:12:11.225Z,1002.72
2017-12-01T03:12:37.335Z,1002.71
2017-12-01T03:13:03.460Z,1002.72
2017-12-01T03:13:29.596Z,1002.72
2017-12-01T03:13:55.720Z,1002.75
2017-12-01T03:14:21.833Z,1002.72
2017-12-01T03:14:47.959Z,1002.71
2017-12-01T03:15:14.099Z,1002.72
2017-12-01T03:15:40.219Z,1002.74
2017-12-01T03:16:06.334Z,1002.75
2017-12-01T03:16:32.462Z,1002.75
2017-12-01T03:16:58.581Z,1002.71
2017-12-01T03:17:24.696Z,1002.78
2017-12-01T03:17:50.819Z,1002.78
2017-12-01T03:18:16.941Z,1002.78
2017-12-01T03:18:43.059Z,1002.76
2017-12-01T03:19:09.174Z,1002.74
2017-12-01T03:19:35.295Z,1002.74
2017-12-01T03:20:01.420Z,1002.77
2017-12-01T03:20:27.531Z,1002.79
2017-12-01T03:20:53.656Z,1002.77
2017-12-01T03:21:19.779Z,1002.82
2017-12-01T03:21:45.894Z,1002.76
2017-12-01T03:22:12.045Z,1002.77
2017-12-01T03:22:38.156Z,1002.78
2017-12-01T03:23:04.274Z,1002.81
2017-12-01T03:23:30.399Z,1002.78
2017-12-01T03:23:56.518Z,1002.84
2017-12-01T03:24:22.632Z,1002.82
2017-12-01T03:24:48.754Z,1002.83
2017-12-01T03:25:14.883Z,1002.82
2017-12-01T03:25:41.002Z,1002.84
2017-12-01T03:26:07.147Z,1002.86
2017-12-01T03:26:33.285Z,1002.85
2017-12-01T03:26:59.400Z,1002.86
2017-12-01T03:27:25.543Z,1002.87
2017-12-01T03:27:51.656Z,1002.88
2017-12-01T03:28:17.774Z,1002.88
2017-12-01T03:28:43.894Z,1002.89
2017-12-01T03:29:10.013Z,1002.94
2017-12-01T03:29:36.131Z,1002.9
2017-12-01T03:30:02.250Z,1002.96
2017-12-01T03:30:28.366Z,1002.95
2017-12-01T03:30:54.482Z,1002.92
2017-12-01T03:31:20.609Z,1002.93
2017-12-01T03:31:46.725Z,1002.93
2017-12-01T03:32:12.853Z,1002.97
2017-12-01T03:32:38.975Z,1002.92
2017-12-01T03:33:05.099Z,1002.97
2017-12-01T03:33:31.211Z,1002.96
2017-12-01T03:33:57.336Z,1002.97
2017-12-01T03:34:23.459Z,1003.01
2017-12-01T03:34:49.576Z,1003
2017-12-01T03:35:15.702Z,1003.03
2017-12-01T03:35:41.814Z,1002.98
2017-12-01T03:36:07.958Z,1003.03
2017-12-01T03:36:34.074Z,1003
2017-12-01T03:37:00.191Z,1003.02
2017-12-01T03:37:26.316Z,1003.02
2017-12-01T03:37:52.438Z,1003.03
2017-12-01T03:38:18.554Z,1003.04
2017-12-01T03:38:44.673Z,1003.06
2017-12-01T03:39:10.798Z,1003.06
2017-12-01T03:39:36.912Z,1003.08
2017-12-01T03:40:03.035Z,1003.09
2017-12-01T03:40:29.157Z,1003.07
2017-12-01T03:40:55.274Z,1003.08
2017-12-01T03:41:21.395Z,1003.11
2017-12-01T03:41:47.518Z,1003.08
2017-12-01T03:42:13.631Z,1003.1
2017-12-01T03:42:39.755Z,1003.1
2017-12-01T03:43:05.877Z,1003.13
2017-12-01T03:43:31.993Z,1003.11
2017-12-01T03:43:58.139Z,1003.09
2017-12-01T03:44:24.254Z,1003.14
2017-12-01T03:44:50.375Z,1003.15
2017-12-01T03:45:16.501Z,1003.15
2017-12-01T03:45:42.616Z,1003.16
2017-12-01T03:46:08.747Z,1003.15
2017-12-01T03:46:34.855Z,1003.15
2017-12-01T03:47:00.978Z,1003.19
2017-12-01T03:47:27.102Z,1003.2
2017-12-01T03:47:53.220Z,1003.22
2017-12-01T03:48:19.355Z,1003.22
2017-12-01T03:48:45.481Z,1003.2
2017-12-01T03:49:11.605Z,1003.18
2017-12-01T03:49:37.721Z,1003.19
2017-12-01T03:50:03.842Z,1003.2
2017-12-01T03:50:29.959Z,1003.22
2017-12-01T03:50:56.106Z,1003.22
2017-12-01T03:51:22.219Z,1003.22
2017-12-01T03:51:48.344Z,1003.22
2017-12-01T03:52:14.460Z,1003.21
2017-12-01T03:52:40.582Z,1003.23
2017-12-01T03:53:06.701Z,1003.24
2017-12-01T03:53:32.818Z,1003.27
2017-12-01T03:53:58.943Z,1003.25
2017-12-01T03:54:25.059Z,1003.24
2017-12-01T03:54:51.184Z,1003.27
2017-12-01T03:55:17.299Z,1003.25
2017-12-01T03:55:43.421Z,1003.27
2017-12-01T03:56:09.553Z,1003.27
2017-12-01T03:56:35.680Z,1003.28
2017-12-01T03:57:01.800Z,1003.3
2017-12-01T03:57:27.926Z,1003.34
2017-12-01T03:57:54.042Z,1003.3
2017-12-01T03:58:20.190Z,1003.28
2017-12-01T03:58:46.312Z,1003.3
2017-12-01T03:59:12.427Z,1003.35
2017-12-01T03:59:38.561Z,1003.37
2017-12-01T04:00:04.666Z,1003.34
2017-12-01T04:00:30.784Z,1003.34
2017-12-01T04:00:56.928Z,1003.38
2017-12-01T04:01:23.045Z,1003.37
2017-12-01T04:01:49.162Z,1003.39
2017-12-01T04:02:15.285Z,1003.44
2017-12-01T04:02:41.411Z,1003.43
2017-12-01T04:03:07.522Z,1003.43
2017-12-01T04:03:33.639Z,1003.43
2017-12-01T04:03:59.756Z,1003.42
2017-12-01T04:04:25.908Z,1003.41
2017-12-01T04:04:52.035Z,1003.45
2017-12-01T04:05:18.173Z,1003.42
2017-12-01T04:05:44.297Z,1003.45
2017-12-01T04:06:10.412Z,1003.41
2017-12-01T04:06:36.532Z,1003.48
2017-12-01T04:07:02.652Z,1003.45
2017-12-01T04:07:28.771Z,1003.48
2017-12-01T04:07:54.894Z,1003.45
2017-12-01T04:08:21.015Z,1003.49
2017-12-01T04:08:47.137Z,1003.48
2017-12-01T04:09:13.250Z,1003.52
2017-12-01T04:09:39.376Z,1003.55
2017-12-01T04:10:05.519Z,1003.53
2017-12-01T04:10:31.662Z,1003.5
2017-12-01T04:10:57.772Z,1003.52
2017-12-01T04:11:23.891Z,1003.55
2017-12-01T04:11:50.042Z,1003.59
2017-12-01T04:12:16.158Z,1003.58
2017-12-01T04:12:42.276Z,1003.62
2017-12-01T04:13:08.400Z,1003.63
2017-12-01T04:13:34.517Z,1003.61
2017-12-01T04:14:00.638Z,1003.64
2017-12-01T04:14:26.773Z,1003.65
2017-12-01T04:14:52.894Z,1003.64
2017-12-01T04:15:19.017Z,1003.68
2017-12-01T04:15:45.136Z,1003.67
2017-12-01T04:16:11.268Z,1003.69
2017-12-01T04:16:37.395Z,1003.72
2017-12-01T04:17:03.512Z,1003.68
2017-12-01T04:17:29.634Z,1003.67
2017-12-01T04:17:55.758Z,1003.73
2017-12-01T04:18:21.876Z,1003.73
2017-12-01T04:18:47.990Z,1003.75
2017-12-01T04:19:14.115Z,1003.75
2017-12-01T04:19:40.231Z,1003.76
2017-12-01T04:20:06.356Z,1003.73
2017-12-01T04:20:32.471Z,1003.76
2017-12-01T04:20:58.596Z,1003.77
2017-12-01T04:21:24.712Z,1003.76
2017-12-01T04:21:50.848Z,1003.74
2017-12-01T04:22:16.968Z,1003.77
2017-12-01T04:22:43.087Z,1003.79
2017-12-01T04:23:09.225Z,1003.79
2017-12-01T04:23:35.348Z,1003.81
2017-12-01T04:24:01.476Z,1003.81
2017-12-01T04:24:27.595Z,1003.82
2017-12-01T04:24:53.720Z,1003.81
2017-12-01T04:25:19.834Z,1003.83
2017-12-01T04:25:45.952Z,1003.88
2017-12-01T04:26:12.076Z,1003.86
2017-12-01T04:26:38.197Z,1003.84
2017-12-01T04:27:04.308Z,1003.85
2017-12-01T04:27:30.473Z,1003.89
2017-12-01T04:27:56.587Z,1003.86
2017-12-01T04:28:22.716Z,1003.88
2017-12-01T04:28:48.836Z,1003.9
2017-12-01T04:29:14.958Z,1003.88
2017-12-01T04:29:41.076Z,1003.89
2017-12-01T04:30:07.216Z,1003.9
2017-12-01T04:30:33.332Z,1003.91
2017-12-01T04:30:59.462Z,1003.9
2017-12-01T04:31:25.578Z,1003.9
2017-12-01T04:31:51.693Z,1003.91
2017-12-01T04:32:17.816Z,1003.91
2017-12-01T04:32:43.952Z,1003.93
2017-12-01T04:33:10.053Z,1003.94
2017-12-01T04:33:36.179Z,1003.93
2017-12-01T04:34:02.312Z,1003.95
2017-12-01T04:34:28.455Z,1003.98
2017-12-01T04:34:54.568Z,1003.97
2017-12-01T04:35:20.687Z,1003.97
2017-12-01T04:35:46.808Z,1003.98
2017-12-01T04:36:12.933Z,1004
2017-12-01T04:36:39.045Z,1004.01
2017-12-01T04:37:05.170Z,1004.03
2017-12-01T04:37:31.287Z,1004.03
2017-12-01T04:37:57.404Z,1004.05
2017-12-01T04:38:23.528Z,1004.06
2017-12-01T04:38:49.642Z,1004.11
2017-12-01T04:39:15.763Z,1004.12
2017-12-01T04:39:41.922Z,1004.1
2017-12-01T04:40:08.049Z,1004.12
2017-12-01T04:40:34.167Z,1004.09
2017-12-01T04:41:00.291Z,1004.08
2017-12-01T04:41:26.412Z,1004.12
2017-12-01T04:41:52.529Z,1004.06
2017-12-01T04:42:18.670Z,1004.06
2017-12-01T04:42:44.770Z,1004.12
2017-12-01T04:43:10.896Z,1004.09
2017-12-01T04:43:37.070Z,1004.07
2017-12-01T04:44:03.153Z,1004.09
2017-12-01T04:44:29.264Z,1004.13
2017-12-01T04:44:55.381Z,1004.15
2017-12-01T04:45:21.503Z,1004.14
2017-12-01T04:45:47.628Z,1004.15
2017-12-01T04:46:13.747Z,1004.12
2017-12-01T04:46:39.863Z,1004.15
2017-12-01T04:47:05.977Z,1004.17
2017-12-01T04:47:32.095Z,1004.16
2017-12-01T04:47:58.220Z,1004.17
2017-12-01T04:48:24.341Z,1004.16
2017-12-01T04:48:50.452Z,1004.21
2017-12-01T04:49:16.576Z,1004.18
2017-12-01T04:49:42.718Z,1004.18
2017-12-01T04:50:08.855Z,1004.22
2017-12-01T04:50:34.982Z,1004.24
2017-12-01T04:51:01.144Z,1004.24
2017-12-01T04:51:27.264Z,1004.22
2017-12-01T04:51:53.389Z,1004.22
2017-12-01T04:52:19.509Z,1004.23
2017-12-01T04:52:45.624Z,1004.28
2017-12-01T04:53:11.742Z,1004.28
2017-12-01T04:53:37.863Z,1004.25
2017-12-01T04:54:03.989Z,1004.3
2017-12-01T04:54:30.101Z,1004.34
2017-12-01T04:54:56.225Z,1004.34
2017-12-01T04:55:22.346Z,1004.35
2017-12-01T04:55:48.483Z,1004.34
2017-12-01T04:56:14.605Z,1004.31
2017-12-01T04:56:40.719Z,1004.35
2017-12-01T04:57:06.838Z,1004.34
2017-12-01T04:57:32.964Z,1004.33
2017-12-01T04:57:59.080Z,1004.37
2017-12-01T04:58:25.202Z,1004.33
2017-12-01T04:58:51.323Z,1004.34
2017-12-01T04:59:17.438Z,1004.36
2017-12-01T04:59:43.557Z,1004.38
2017-12-01T05:00:09.684Z,1004.4
2017-12-01T05:00:35.806Z,1004.41
2017-12-01T05:01:01.919Z,1004.39
2017-12-01T05:01:28.042Z,1004.34
2017-12-01T05:01:54.182Z,1004.4
2017-12-01T05:02:20.298Z,1004.41
2017-12-01T05:02:46.425Z,1004.43
2017-12-01T05:03:12.540Z,1004.44
2017-12-01T05:03:38.665Z,1004.42
2017-12-01T05:04:04.780Z,1004.46
2017-12-01T05:04:30.904Z,1004.46
2017-12-01T05:04:57.022Z,1004.43
2017-12-01T05:05:23.142Z,1004.49
2017-12-01T05:05:49.264Z,1004.48
2017-12-01T05:06:15.406Z,1004.49
2017-12-01T05:06:41.521Z,1004.5
2017-12-01T05:07:07.644Z,1004.49
2017-12-01T05:07:33.761Z,1004.52
2017-12-01T05:07:59.880Z,1004.49
2017-12-01T05:08:26.003Z,1004.49
2017-12-01T05:08:52.118Z,1004.53
2017-12-01T05:09:18.238Z,1004.53
2017-12-01T05:09:44.366Z,1004.49
2017-12-01T05:10:10.488Z,1004.53
2017-12-01T05:10:36.609Z,1004.48
2017-12-01T05:11:02.731Z,1004.51
2017-12-01T05:11:28.852Z,1004.5
2017-12-01T05:11:54.967Z,1004.52
2017-12-01T05:12:21.082Z,1004.52
2017-12-01T05:12:47.202Z,1004.53
2017-12-01T05:13:13.348Z,1004.55
2017-12-01T05:13:39.481Z,1004.55
2017-12-01T05:14:05.595Z,1004.54
2017-12-01T05:14:31.720Z,1004.53
2017-12-01T05:14:57.840Z,1004.55
2017-12-01T05:15:23.957Z,1004.57
2017-12-01T05:15:50.082Z,1004.55
2017-12-01T05:16:16.196Z,1004.57
2017-12-01T05:16:42.319Z,1004.56
2017-12-01T05:17:08.435Z,1004.61